Time;durP1;ratioP1;P1;durP2;ratioP2;P2;SDS_P1;SDS_P2;PMS_P1;PMS_P2;Temp;Humidity;BMP_temperature;BMP_pressure;BME280_temperature;BME280_humidity;BME280_pressure;Samples;Min_cycle;Max_cycle;Signal;HPM_P1;HPM_P2
2022/08/17 00:03:54;;;;;;;24.30;19.30;;;;;;;19.13;78.64;98070.93;435126;1263;110831;-39
2022/08/17 00:14:07;;;;;;;31.30;20.80;;;;;;;19.09;78.74;98067.63;435023;1264;109568;-41
2022/08/17 00:24:14;;;;;;;26.30;17.80;;;;;;;19.03;78.90;98069.69;435075;1264;97519;-39
2022/08/17 00:34:24;;;;;;;26.20;18.90;;;;;;;18.94;79.00;98071.58;434399;1262;108766;-42
2022/08/17 00:44:33;;;;;;;29.10;19.90;;;;;;;18.89;79.09;98065.00;434169;1265;97465;-41
2022/08/17 00:54:44;;;;;;;24.10;18.50;;;;;;;18.93;79.19;98070.26;435211;1264;111126;-41
2022/08/17 01:04:54;;;;;;;24.10;18.70;;;;;;;19.02;79.57;98061.73;435006;1264;108905;-42
2022/08/17 01:15:01;;;;;;;23.10;17.60;;;;;;;18.98;79.49;98060.02;434862;1254;96637;-40
2022/08/17 01:25:11;;;;;;;22.90;16.90;;;;;;;18.90;79.29;98059.53;434664;1264;107712;-41
2022/08/17 01:35:17;;;;;;;24.50;17.70;;;;;;;18.69;79.14;98061.38;434785;1264;97899;-40
2022/08/17 01:55:26;;;;;;;24.80;19.30;;;;;;;18.40;79.31;98075.24;435010;1264;108691;-40
2022/08/17 02:15:40;;;;;;;29.70;18.20;;;;;;;18.34;79.92;98082.91;435002;1262;108891;-41
2022/08/17 02:35:53;;;;;;;24.20;18.70;;;;;;;18.23;80.26;98074.80;435315;1263;111022;-42
2022/08/17 02:46:00;;;;;;;23.90;16.80;;;;;;;18.25;80.33;98084.87;434610;1263;109028;-41
2022/08/17 02:56:08;;;;;;;23.70;17.50;;;;;;;18.13;80.42;98084.26;435105;1264;97500;-39
2022/08/17 03:06:15;;;;;;;26.00;21.90;;;;;;;18.02;80.66;98080.16;435460;1262;108749;-40
2022/08/17 03:16:22;;;;;;;30.20;22.40;;;;;;;17.97;80.79;98088.30;435341;1263;97919;-41
2022/08/17 03:26:31;;;;;;;30.90;20.50;;;;;;;17.93;80.74;98096.81;435280;1263;111032;-40
2022/08/17 03:36:38;;;;;;;25.20;20.10;;;;;;;17.92;80.92;98102.00;435184;1262;108929;-40
2022/08/17 03:57:11;;;;;;;23.50;18.90;;;;;;;17.99;80.91;98119.73;435078;1264;109463;-40
2022/08/17 04:07:18;;;;;;;28.90;18.50;;;;;;;18.24;81.09;98120.58;435029;1264;96644;-40
2022/08/17 04:27:29;;;;;;;21.60;17.30;;;;;;;18.69;80.90;98121.32;434828;1263;109179;-42
2022/08/17 04:37:36;;;;;;;25.60;17.10;;;;;;;19.29;81.17;98115.90;435181;1263;97485;-41
2022/08/17 04:47:43;;;;;;;27.50;20.50;;;;;;;20.68;80.74;98129.16;434889;1264;108132;-39
2022/08/17 04:57:49;;;;;;;25.90;19.20;;;;;;;21.61;79.70;98137.39;435090;1264;108407;-39
2022/08/17 05:07:58;;;;;;;25.70;17.40;;;;;;;22.39;79.17;98141.37;434914;1261;98161;-40
2022/08/17 05:18:04;;;;;;;21.00;18.30;;;;;;;23.45;77.99;98140.11;434958;1263;110434;-40
2022/08/17 05:28:12;;;;;;;19.60;17.40;;;;;;;24.10;76.89;98142.45;434950;1264;108793;-40
2022/08/17 05:38:21;;;;;;;28.90;21.30;;;;;;;24.88;76.65;98142.69;434891;1263;108630;-39
2022/08/17 05:48:30;;;;;;;25.50;19.30;;;;;;;25.30;75.37;98153.77;435051;1263;97499;-40
2022/08/17 05:58:47;;;;;;;19.90;16.70;;;;;;;26.30;75.62;98159.20;435132;1263;110929;-39
2022/08/17 06:08:53;;;;;;;19.60;16.90;;;;;;;27.03;74.26;98159.58;435084;1264;108804;-39
2022/08/17 06:18:58;;;;;;;19.70;17.70;;;;;;;27.41;73.11;98157.11;435053;1263;107830;-40
2022/08/17 06:29:16;;;;;;;17.60;15.70;;;;;;;28.02;72.20;98154.64;434862;1264;97906;-40
2022/08/17 06:49:45;;;;;;;21.90;16.00;;;;;;;29.20;69.80;98162.20;434994;1264;109329;-40
2022/08/17 07:10:09;;;;;;;18.90;16.60;;;;;;;28.87;66.52;98174.23;435805;1263;111056;-40
2022/08/17 07:30:30;;;;;;;24.80;15.80;;;;;;;28.54;65.78;98186.23;435070;1264;108807;-39
2022/08/17 07:51:14;;;;;;;24.20;15.20;;;;;;;28.90;65.55;98186.89;435146;1262;111010;-39
2022/08/17 08:01:22;;;;;;;15.80;14.00;;;;;;;29.05;64.41;98195.94;434929;1264;109105;-39
2022/08/17 08:11:36;;;;;;;17.20;13.10;;;;;;;29.37;63.93;98201.02;434904;1263;97520;-42
2022/08/17 08:21:58;;;;;;;15.90;13.70;;;;;;;29.80;63.19;98203.27;434722;1264;97497;-41
2022/08/17 08:32:08;;;;;;;18.40;13.30;;;;;;;29.19;61.17;98206.63;435123;1263;111060;-40
2022/08/17 08:42:18;;;;;;;15.70;13.40;;;;;;;28.96;60.83;98212.52;434991;1263;107359;-40
2022/08/17 08:52:29;;;;;;;20.30;14.00;;;;;;;28.78;59.46;98210.29;435199;1264;108472;-40
2022/08/17 09:03:02;;;;;;;15.90;12.30;;;;;;;29.09;60.20;98208.61;435161;1264;98138;-44
2022/08/17 09:23:25;;;;;;;15.10;13.70;;;;;;;30.30;59.05;98203.83;434009;1264;108787;-41
2022/08/17 09:33:37;;;;;;;15.20;12.50;;;;;;;30.09;57.06;98203.59;433936;1264;98022;-41
2022/08/17 09:43:49;;;;;;;15.90;14.20;;;;;;;29.97;56.84;98214.44;434384;1264;111009;-41
2022/08/17 09:53:57;;;;;;;17.20;13.20;;;;;;;30.15;56.61;98213.73;433673;1264;108817;-41
2022/08/17 10:04:31;;;;;;;20.30;14.60;;;;;;;30.55;55.64;98212.65;432424;1264;1475140;-42
2022/08/17 10:14:47;;;;;;;25.80;14.30;;;;;;;29.96;55.52;98204.35;433730;1264;98021;-42
2022/08/17 10:35:39;;;;;;;16.20;14.50;;;;;;;31.11;55.21;98203.91;434198;1264;108526;-41
2022/08/17 10:45:46;;;;;;;15.30;12.70;;;;;;;30.59;54.15;98205.52;434622;1264;108967;-41
2022/08/17 10:56:20;;;;;;;12.20;11.10;;;;;;;30.13;53.88;98207.75;434203;1264;97898;-41
2022/08/17 11:06:34;;;;;;;19.10;12.10;;;;;;;30.47;54.51;98204.74;434316;1265;110662;-40
2022/08/17 11:27:01;;;;;;;14.90;11.50;;;;;;;30.46;53.42;98198.73;434344;1263;108857;-40
2022/08/17 11:37:23;;;;;;;17.30;12.60;;;;;;;30.43;52.42;98199.80;434140;1263;97983;-40
2022/08/17 11:58:36;;;;;;;17.60;11.90;;;;;;;30.08;52.10;98203.77;434507;1264;108769;-41
2022/08/17 12:08:49;;;;;;;11.60;10.30;;;;;;;29.90;51.98;98196.95;434574;1264;108500;-41
2022/08/17 12:19:02;;;;;;;13.20;9.00;;;;;;;30.18;51.00;98182.32;434880;1264;98217;-40
2022/08/17 12:29:15;;;;;;;14.20;10.00;;;;;;;30.44;49.55;98177.04;434893;1263;110935;-41
